createdAt,value
2022-09-30T00:02:01.256Z,10.10
2022-09-30T00:06:08.871Z,10.00
2022-09-30T00:10:11.038Z,10.10
2022-09-30T00:14:18.994Z,10.10
2022-09-30T00:18:20.802Z,10.10
2022-09-30T00:22:22.625Z,10.00
2022-09-30T00:26:24.747Z,10.00
2022-09-30T00:30:26.612Z,9.80
2022-09-30T00:34:28.349Z,9.80
2022-09-30T00:38:30.143Z,9.80
2022-09-30T00:42:31.941Z,9.70
2022-09-30T00:46:42.270Z,9.60
2022-09-30T00:50:48.840Z,9.70
2022-09-30T00:54:51.325Z,9.70
2022-09-30T00:59:27.629Z,9.60
2022-09-30T01:03:37.572Z,9.50
2022-09-30T01:07:39.326Z,9.50
2022-09-30T01:11:41.460Z,9.50
2022-09-30T01:16:04.193Z,9.50
2022-09-30T01:20:42.182Z,9.50
2022-09-30T01:25:14.183Z,9.50
2022-09-30T01:29:49.370Z,9.60
2022-09-30T01:34:15.757Z,9.50
2022-09-30T01:38:45.369Z,9.60
2022-09-30T01:43:12.854Z,9.50
2022-09-30T01:47:31.420Z,9.50
2022-09-30T01:51:54.652Z,9.60
2022-09-30T01:56:13.866Z,9.70
2022-09-30T02:00:22.052Z,9.70
2022-09-30T02:04:48.024Z,9.70
2022-09-30T02:09:14.138Z,9.70
2022-09-30T02:13:22.349Z,9.70
2022-09-30T02:17:36.039Z,9.60
2022-09-30T02:21:47.048Z,9.60
2022-09-30T02:26:06.999Z,9.60
2022-09-30T02:30:12.595Z,9.70
2022-09-30T02:34:24.032Z,9.70
2022-09-30T02:38:37.546Z,9.70
2022-09-30T02:42:39.420Z,9.70
2022-09-30T02:46:57.460Z,9.70
2022-09-30T02:51:04.023Z,9.60
2022-09-30T02:55:13.113Z,9.70
2022-09-30T02:59:14.967Z,9.80
2022-09-30T03:03:40.982Z,9.80
2022-09-30T03:07:42.781Z,9.70
2022-09-30T03:11:44.776Z,9.80
2022-09-30T03:16:05.740Z,9.80
2022-09-30T03:20:19.888Z,9.90
2022-09-30T03:25:18.189Z,9.90
2022-09-30T03:29:35.171Z,9.80
2022-09-30T03:33:50.529Z,9.80
2022-09-30T03:38:30.445Z,9.90
2022-09-30T03:42:58.115Z,9.90
2022-09-30T03:47:10.671Z,10.00
2022-09-30T03:51:13.502Z,10.00
2022-09-30T03:55:15.738Z,10.10
2022-09-30T03:59:25.657Z,10.10
2022-09-30T04:03:28.547Z,10.00
2022-09-30T04:07:30.521Z,10.00
2022-09-30T04:11:32.366Z,10.00
2022-09-30T04:15:36.375Z,10.00
2022-09-30T04:19:40.303Z,10.00
2022-09-30T04:23:42.686Z,9.90
2022-09-30T04:27:46.651Z,9.90
2022-09-30T04:31:48.571Z,9.90
2022-09-30T04:35:55.238Z,9.70
2022-09-30T04:39:57.146Z,9.70
2022-09-30T04:43:59.118Z,9.60
2022-09-30T04:48:01.258Z,9.40
2022-09-30T04:52:23.847Z,9.30
2022-09-30T04:56:26.979Z,9.30
2022-09-30T05:00:28.861Z,9.20
2022-09-30T05:04:33.524Z,9.10
2022-09-30T05:08:35.652Z,9.00
2022-09-30T05:12:41.297Z,9.00
2022-09-30T05:17:13.399Z,9.00
2022-09-30T05:21:39.135Z,8.90
2022-09-30T05:26:32.417Z,8.90
2022-09-30T05:30:34.537Z,8.90
2022-09-30T05:47:52.271Z,9.10
2022-09-30T05:58:17.880Z,9.30
2022-09-30T06:02:20.273Z,9.40
2022-09-30T06:06:26.952Z,9.50
2022-09-30T06:10:29.204Z,9.60
2022-09-30T06:14:34.747Z,9.50
2022-09-30T06:23:08.167Z,9.90
2022-09-30T06:27:31.558Z,10.10
2022-09-30T06:31:33.539Z,10.20
2022-09-30T06:35:41.465Z,10.40
2022-09-30T06:39:43.420Z,10.60
2022-09-30T06:44:02.922Z,10.70
2022-09-30T07:02:45.414Z,11.90
2022-09-30T07:11:26.773Z,12.00
2022-09-30T07:15:31.609Z,12.10
2022-09-30T08:36:06.810Z,14.90
2022-09-30T08:40:21.966Z,15.20
2022-09-30T08:44:38.772Z,15.30
2022-09-30T08:49:09.018Z,15.30
2022-09-30T08:53:26.619Z,15.30
2022-09-30T09:04:34.802Z,15.20
2022-09-30T09:15:04.902Z,15.60
2022-09-30T09:19:12.713Z,15.50
2022-09-30T09:23:14.733Z,15.60
2022-09-30T09:31:32.692Z,16.20
2022-09-30T09:35:54.823Z,16.20
2022-09-30T09:55:27.373Z,16.20
2022-09-30T10:10:27.504Z,16.60
2022-09-30T10:15:19.162Z,16.70
2022-09-30T10:26:07.413Z,16.60
2022-09-30T11:57:14.701Z,17.80
2022-09-30T12:02:33.797Z,17.70
2022-09-30T12:06:57.005Z,17.90
2022-09-30T12:11:09.492Z,18.10
2022-09-30T12:15:18.561Z,18.10
2022-09-30T12:25:12.134Z,18.20
2022-09-30T12:29:57.835Z,18.30
2022-09-30T12:35:01.583Z,18.40
2022-09-30T12:40:05.200Z,18.20
2022-09-30T13:37:56.837Z,18.30
2022-09-30T13:47:48.284Z,18.40
2022-09-30T15:33:27.688Z,17.80
2022-09-30T15:37:40.232Z,17.80
2022-09-30T15:42:53.567Z,17.80
2022-09-30T15:47:15.438Z,17.90
2022-09-30T15:56:32.983Z,17.90
2022-09-30T16:00:39.332Z,17.80
2022-09-30T16:04:41.435Z,17.80
2022-09-30T16:09:11.854Z,17.80
2022-09-30T16:13:36.695Z,17.80
2022-09-30T16:24:59.778Z,17.80
2022-09-30T16:29:14.653Z,17.60
2022-09-30T16:33:28.259Z,17.50
2022-09-30T16:54:54.256Z,16.50
2022-09-30T17:00:03.170Z,16.20
2022-09-30T17:09:41.501Z,15.70
2022-09-30T17:14:23.288Z,15.50
2022-09-30T17:19:28.551Z,15.30
2022-09-30T17:28:22.921Z,15.00
2022-09-30T17:32:30.688Z,14.80
2022-09-30T17:37:21.038Z,14.60
2022-09-30T18:00:07.519Z,14.20
2022-09-30T18:32:55.423Z,14.10
2022-09-30T19:05:27.098Z,13.60
2022-09-30T19:15:16.269Z,13.30
2022-09-30T19:32:06.681Z,12.80
2022-09-30T19:52:29.501Z,12.40
2022-09-30T20:03:01.751Z,12.20
2022-09-30T20:07:33.756Z,12.10
2022-09-30T20:21:38.209Z,11.80
2022-09-30T20:25:41.701Z,11.80
2022-09-30T20:29:51.211Z,11.70
2022-09-30T20:34:00.223Z,11.70
2022-09-30T20:38:06.667Z,11.60
2022-09-30T20:42:14.029Z,11.50
2022-09-30T20:46:16.159Z,11.50
2022-09-30T20:50:35.110Z,11.50
2022-09-30T20:54:38.307Z,11.40
2022-09-30T20:58:40.382Z,11.40
2022-09-30T21:02:42.258Z,11.30
2022-09-30T21:06:44.207Z,11.30
2022-09-30T21:10:46.117Z,11.20
2022-09-30T21:14:48.201Z,11.20
2022-09-30T21:18:58.584Z,11.10
2022-09-30T21:23:05.298Z,11.10
2022-09-30T21:27:08.066Z,11.00
2022-09-30T21:31:29.006Z,11.00
2022-09-30T21:35:30.911Z,10.90
2022-09-30T21:39:32.776Z,10.90
2022-09-30T21:43:36.510Z,10.80
2022-09-30T21:47:38.488Z,10.80
2022-09-30T21:51:40.769Z,10.70
2022-09-30T21:55:43.242Z,10.70
2022-09-30T21:59:49.737Z,10.60
2022-09-30T22:03:52.282Z,10.60
2022-09-30T22:07:54.187Z,10.50
2022-09-30T22:11:58.350Z,10.50
2022-09-30T22:16:05.482Z,10.50
2022-09-30T22:20:09.458Z,10.50
2022-09-30T22:24:11.465Z,10.50
2022-09-30T22:28:13.372Z,10.40
2022-09-30T22:32:15.349Z,10.40
2022-09-30T22:36:36.186Z,10.40
2022-09-30T22:40:38.155Z,10.30
2022-09-30T22:44:40.045Z,10.30
2022-09-30T22:48:41.945Z,10.30
2022-09-30T22:52:43.864Z,10.20
2022-09-30T22:56:45.945Z,10.20
2022-09-30T23:00:55.542Z,10.10
2022-09-30T23:04:59.015Z,10.10
2022-09-30T23:09:04.298Z,10.10
2022-09-30T23:13:08.978Z,10.10
2022-09-30T23:17:13.288Z,10.10
2022-09-30T23:21:18.445Z,10.00
2022-09-30T23:25:21.419Z,9.90
2022-09-30T23:29:23.891Z,9.90
2022-09-30T23:33:26.691Z,9.90
2022-09-30T23:37:28.514Z,9.90
2022-09-30T23:41:31.993Z,9.90
2022-09-30T23:45:34.204Z,9.90
2022-09-30T23:49:36.172Z,9.90
2022-09-30T23:53:38.230Z,9.80
2022-09-30T23:57:40.220Z,9.80
